createdAt,value
2018-03-16T00:00:15.890Z,47.13
2018-03-16T00:02:43.457Z,45.88
2018-03-16T00:05:10.971Z,52.80
2018-03-16T00:07:38.574Z,34.90
2018-03-16T00:10:06.069Z,41.05
2018-03-16T00:12:34.388Z,39.17
2018-03-16T00:15:02.681Z,48.47
2018-03-16T00:17:30.209Z,50.65
2018-03-16T00:19:57.716Z,41.70
2018-03-16T00:22:37.407Z,36.50
2018-03-16T00:25:04.905Z,39.28
2018-03-16T00:27:33.179Z,40.00
2018-03-16T00:30:01.465Z,42.75
2018-03-16T00:32:29.761Z,39.92
2018-03-16T00:34:57.359Z,44.35
2018-03-16T00:37:24.919Z,44.10
2018-03-16T00:39:52.425Z,43.28
2018-03-16T00:42:20.697Z,34.22
2018-03-16T00:44:48.629Z,37.80
2018-03-16T00:47:16.165Z,44.50
2018-03-16T00:49:43.669Z,40.47
2018-03-16T00:52:11.194Z,34.47
2018-03-16T00:54:39.504Z,36.00
2018-03-16T00:57:07.738Z,37.42
2018-03-16T00:59:36.025Z,33.72
2018-03-16T01:02:04.296Z,37.40
2018-03-16T01:04:32.603Z,40.12
2018-03-16T01:07:00.110Z,37.00
2018-03-16T01:09:27.628Z,40.08
2018-03-16T01:11:55.121Z,44.50
2018-03-16T01:14:22.629Z,40.97
2018-03-16T01:16:50.891Z,40.95
2018-03-16T01:19:18.420Z,38.08
2018-03-16T01:21:45.979Z,39.58
2018-03-16T01:24:13.505Z,47.35
2018-03-16T01:26:41.779Z,44.85
2018-03-16T01:29:09.401Z,32.28
2018-03-16T01:31:36.891Z,35.78
2018-03-16T01:34:04.402Z,40.17
2018-03-16T01:36:31.961Z,29.65
2018-03-16T01:38:59.477Z,33.33
2018-03-16T01:41:26.984Z,31.48
2018-03-16T01:43:54.509Z,28.95
2018-03-16T01:46:21.991Z,30.10
2018-03-16T01:48:50.281Z,29.95
2018-03-16T01:51:17.802Z,28.60
2018-03-16T01:53:45.361Z,35.47
2018-03-16T01:56:12.851Z,24.60
2018-03-16T01:58:40.415Z,31.37
2018-03-16T02:01:07.919Z,22.48
2018-03-16T02:03:35.420Z,23.40
2018-03-16T02:06:02.908Z,24.50
2018-03-16T02:08:30.438Z,25.15
2018-03-16T02:10:57.968Z,28.12
2018-03-16T02:13:25.770Z,26.30
2018-03-16T02:15:53.258Z,18.55
2018-03-16T02:18:20.759Z,27.42
2018-03-16T02:20:48.271Z,24.65
2018-03-16T02:23:15.778Z,19.20
2018-03-16T02:25:44.047Z,23.92
2018-03-16T02:28:12.298Z,16.52
2018-03-16T02:30:39.796Z,19.87
2018-03-16T02:33:07.302Z,17.87
2018-03-16T02:35:34.823Z,20.48
2018-03-16T02:38:03.395Z,26.00
2018-03-16T02:40:31.670Z,18.02
2018-03-16T02:42:59.165Z,17.20
2018-03-16T02:45:26.714Z,19.05
2018-03-16T02:47:54.979Z,19.17
2018-03-16T02:50:22.485Z,17.92
2018-03-16T02:52:50.023Z,22.25
2018-03-16T02:55:18.309Z,21.75
2018-03-16T02:57:46.572Z,19.77
2018-03-16T03:00:14.894Z,24.75
2018-03-16T03:02:42.405Z,22.20
2018-03-16T03:05:09.927Z,19.35
2018-03-16T03:07:37.564Z,25.52
2018-03-16T03:10:05.837Z,23.67
2018-03-16T03:12:33.361Z,29.25
2018-03-16T03:15:00.891Z,24.42
2018-03-16T03:17:28.408Z,30.45
2018-03-16T03:19:55.979Z,26.52
2018-03-16T03:22:23.497Z,28.15
2018-03-16T03:24:51.021Z,21.05
2018-03-16T03:27:19.308Z,26.42
2018-03-16T03:29:46.859Z,20.65
2018-03-16T03:32:15.250Z,19.75
2018-03-16T03:34:43.592Z,25.37
2018-03-16T03:37:11.083Z,30.12
2018-03-16T03:39:39.341Z,19.70
2018-03-16T03:42:06.838Z,24.83
2018-03-16T03:44:35.118Z,30.20
2018-03-16T03:47:03.397Z,25.25
2018-03-16T03:49:31.654Z,25.02
2018-03-16T03:51:59.164Z,23.50
2018-03-16T03:54:26.687Z,20.00
2018-03-16T03:56:54.217Z,21.73
2018-03-16T03:59:22.409Z,22.40
2018-03-16T04:01:49.928Z,26.50
2018-03-16T04:04:17.459Z,23.50
2018-03-16T04:06:45.016Z,20.27
2018-03-16T04:09:12.510Z,25.17
2018-03-16T04:11:40.865Z,27.52
2018-03-16T04:14:08.367Z,20.23
2018-03-16T04:16:35.881Z,27.40
2018-03-16T04:19:03.368Z,20.12
2018-03-16T04:21:31.645Z,20.95
2018-03-16T04:23:59.173Z,23.67
2018-03-16T04:26:26.670Z,29.15
2018-03-16T04:28:54.173Z,26.58
2018-03-16T04:31:21.694Z,22.02
2018-03-16T04:33:49.240Z,22.65
2018-03-16T04:36:16.747Z,24.40
2018-03-16T04:38:44.299Z,28.50
2018-03-16T04:41:11.858Z,25.62
2018-03-16T04:43:40.127Z,16.85
2018-03-16T04:46:07.622Z,24.52
2018-03-16T04:48:35.887Z,22.90
2018-03-16T04:51:04.178Z,21.83
2018-03-16T04:53:32.440Z,32.58
2018-03-16T04:56:00.935Z,17.00
2018-03-16T04:58:30.503Z,20.70
2018-03-16T05:00:58.023Z,25.58
2018-03-16T05:03:25.552Z,22.65
2018-03-16T05:05:53.108Z,25.45
2018-03-16T05:08:20.603Z,22.27
2018-03-16T05:10:48.891Z,25.60
2018-03-16T05:13:17.147Z,25.08
2018-03-16T05:15:44.769Z,32.97
2018-03-16T05:18:12.310Z,21.90
2018-03-16T05:20:39.816Z,24.35
2018-03-16T05:23:07.329Z,26.83
2018-03-16T05:25:35.597Z,17.98
2018-03-16T05:28:03.867Z,23.08
2018-03-16T05:30:32.169Z,20.80
2018-03-16T05:33:00.454Z,21.37
2018-03-16T05:35:27.996Z,24.75
2018-03-16T05:37:55.507Z,25.20
2018-03-16T05:40:22.999Z,19.70
2018-03-16T05:42:50.517Z,23.42
2018-03-16T05:45:18.012Z,21.17
2018-03-16T05:47:45.526Z,22.77
2018-03-16T05:50:13.898Z,24.17
2018-03-16T05:52:41.403Z,22.35
2018-03-16T05:55:08.895Z,23.55
2018-03-16T05:57:36.425Z,24.25
2018-03-16T06:00:03.934Z,23.10
2018-03-16T06:02:31.446Z,20.73
2018-03-16T06:04:58.931Z,24.67
2018-03-16T06:07:26.496Z,19.33
2018-03-16T06:09:53.998Z,22.40
2018-03-16T06:12:22.324Z,21.67
2018-03-16T06:14:49.826Z,20.17
2018-03-16T06:17:18.856Z,19.85
2018-03-16T06:19:47.121Z,25.42
2018-03-16T06:22:14.636Z,25.12
2018-03-16T06:24:42.258Z,38.75
2018-03-16T06:27:10.621Z,17.55
2018-03-16T06:29:38.120Z,16.45
2018-03-16T06:32:06.384Z,16.42
2018-03-16T06:34:34.655Z,23.15
2018-03-16T06:37:02.942Z,22.48
2018-03-16T06:39:31.269Z,18.70
2018-03-16T06:41:58.774Z,20.23
2018-03-16T06:44:26.270Z,18.70
2018-03-16T06:46:53.810Z,15.80
2018-03-16T06:49:21.314Z,12.30
2018-03-16T06:51:48.812Z,31.00
2018-03-16T06:54:16.320Z,17.90
2018-03-16T06:56:43.838Z,18.60
2018-03-16T06:59:11.323Z,20.62
2018-03-16T07:01:38.835Z,15.82
2018-03-16T07:04:06.335Z,22.23
2018-03-16T07:06:33.852Z,21.17
2018-03-16T07:09:01.364Z,19.37
2018-03-16T07:11:28.867Z,16.55
2018-03-16T07:13:56.530Z,19.15
2018-03-16T07:16:24.019Z,12.93
2018-03-16T07:18:51.547Z,18.23
2018-03-16T07:21:19.820Z,23.95
2018-03-16T07:23:48.115Z,13.62
2018-03-16T07:26:16.377Z,12.88
2018-03-16T07:28:44.645Z,12.65
2018-03-16T07:31:12.176Z,14.15
2018-03-16T07:33:39.695Z,18.65
2018-03-16T07:36:07.972Z,12.02
2018-03-16T07:38:36.244Z,16.15
2018-03-16T07:41:04.504Z,14.20
2018-03-16T07:43:32.012Z,11.38
2018-03-16T07:46:03.130Z,16.77
2018-03-16T07:48:31.410Z,15.52
2018-03-16T07:50:58.890Z,12.35
2018-03-16T07:53:27.173Z,11.95
2018-03-16T07:55:55.444Z,14.18
2018-03-16T07:58:23.001Z,16.30
2018-03-16T08:00:51.469Z,13.02
2018-03-16T08:03:18.976Z,11.27
2018-03-16T08:05:47.276Z,14.30
2018-03-16T08:08:14.970Z,14.30
2018-03-16T08:10:42.455Z,14.27
2018-03-16T08:13:10.072Z,12.75
2018-03-16T08:15:37.580Z,12.90
2018-03-16T08:18:05.097Z,18.73
2018-03-16T08:20:32.612Z,14.57
2018-03-16T08:23:00.106Z,21.12
2018-03-16T08:25:27.595Z,18.42
2018-03-16T08:27:55.620Z,17.52
2018-03-16T08:30:23.119Z,11.10
2018-03-16T08:32:50.627Z,11.60
2018-03-16T08:35:18.134Z,11.48
2018-03-16T08:37:45.674Z,11.12
2018-03-16T08:40:13.465Z,12.20
2018-03-16T08:42:41.029Z,16.02
2018-03-16T08:45:09.278Z,10.10
2018-03-16T08:47:36.787Z,12.50
2018-03-16T08:50:04.325Z,8.25
2018-03-16T08:52:32.571Z,16.67
2018-03-16T08:55:00.076Z,10.50
2018-03-16T08:57:28.333Z,12.35
2018-03-16T08:59:56.641Z,11.52
2018-03-16T09:02:24.140Z,12.30
2018-03-16T09:04:51.679Z,14.45
2018-03-16T09:07:19.212Z,14.32
2018-03-16T09:09:46.848Z,11.38
2018-03-16T09:12:14.382Z,17.15
2018-03-16T09:14:41.899Z,12.32
2018-03-16T09:17:09.397Z,10.68
2018-03-16T09:19:36.904Z,15.57
2018-03-16T09:22:04.382Z,11.73
2018-03-16T09:24:32.078Z,17.30
2018-03-16T09:27:00.408Z,8.20
2018-03-16T09:29:27.916Z,11.15
2018-03-16T09:31:56.163Z,15.65
2018-03-16T09:34:23.776Z,11.18
2018-03-16T09:36:51.310Z,13.85
2018-03-16T09:39:18.828Z,12.37
2018-03-16T09:41:46.312Z,14.75
2018-03-16T09:44:13.819Z,10.48
2018-03-16T09:46:42.101Z,11.80
2018-03-16T09:49:10.409Z,12.13
2018-03-16T09:51:37.932Z,9.73
2018-03-16T09:54:06.243Z,11.60
2018-03-16T09:56:34.516Z,12.63
2018-03-16T09:59:02.012Z,10.05
2018-03-16T10:01:29.949Z,9.55
2018-03-16T10:03:57.446Z,8.35
2018-03-16T10:06:24.932Z,9.65
2018-03-16T10:08:52.460Z,11.02
2018-03-16T10:11:19.993Z,9.25
2018-03-16T10:13:47.502Z,14.45
2018-03-16T10:16:15.036Z,10.45
2018-03-16T10:18:42.648Z,12.02
2018-03-16T10:21:10.182Z,13.60
2018-03-16T10:23:37.681Z,12.25
2018-03-16T10:26:05.818Z,11.82
2018-03-16T10:28:33.310Z,13.02
2018-03-16T10:31:00.797Z,7.22
2018-03-16T10:33:28.315Z,14.77
2018-03-16T10:35:55.844Z,12.20
2018-03-16T10:38:24.106Z,13.85
2018-03-16T10:40:52.362Z,11.23
2018-03-16T10:43:19.873Z,14.05
2018-03-16T10:45:48.142Z,12.82
2018-03-16T10:48:16.469Z,10.05
2018-03-16T10:50:44.268Z,9.27
2018-03-16T10:53:11.768Z,8.75
2018-03-16T10:55:39.285Z,8.75
2018-03-16T10:58:08.489Z,14.27
2018-03-16T11:00:41.612Z,12.30
2018-03-16T11:03:14.788Z,10.50
2018-03-16T11:05:48.786Z,9.55
2018-03-16T11:08:22.159Z,11.30
2018-03-16T11:10:49.668Z,21.23
2018-03-16T11:13:17.940Z,16.10
2018-03-16T11:15:46.264Z,8.27
2018-03-16T11:18:13.804Z,15.43
2018-03-16T11:20:42.166Z,14.00
2018-03-16T11:23:09.742Z,19.05
2018-03-16T11:25:37.352Z,14.30
2018-03-16T11:28:04.856Z,14.20
2018-03-16T11:30:32.995Z,19.48
2018-03-16T11:33:00.555Z,16.33
2018-03-16T11:35:28.073Z,12.98
2018-03-16T11:37:56.336Z,14.57
2018-03-16T11:40:23.866Z,12.68
2018-03-16T11:42:51.378Z,12.90
2018-03-16T11:45:18.907Z,16.23
2018-03-16T11:47:46.428Z,18.75
2018-03-16T11:50:14.733Z,16.12
2018-03-16T11:52:42.236Z,18.40
2018-03-16T11:55:10.368Z,17.12
2018-03-16T11:57:37.886Z,17.67
2018-03-16T12:02:28.446Z,18.02
2018-03-16T12:04:55.956Z,16.62
2018-03-16T12:07:23.462Z,20.50
2018-03-16T12:09:51.970Z,15.70
2018-03-16T12:12:19.483Z,16.92
2018-03-16T12:14:46.988Z,21.35
2018-03-16T12:17:14.725Z,17.62
2018-03-16T12:19:42.239Z,20.88
2018-03-16T12:22:09.728Z,13.73
2018-03-16T12:24:37.236Z,19.20
2018-03-16T12:27:05.500Z,19.30
2018-03-16T12:29:33.884Z,25.10
2018-03-16T12:32:01.369Z,22.02
2018-03-16T12:34:28.861Z,13.88
2018-03-16T12:36:56.430Z,14.87
2018-03-16T12:39:23.950Z,17.20
2018-03-16T12:41:52.252Z,18.75
2018-03-16T12:44:19.780Z,17.58
2018-03-16T12:46:47.275Z,16.67
2018-03-16T12:49:14.764Z,14.55
2018-03-16T12:51:42.433Z,16.90
2018-03-16T12:54:09.826Z,17.58
2018-03-16T12:56:37.350Z,18.08
2018-03-16T12:59:04.837Z,17.02
2018-03-16T13:01:32.340Z,14.43
2018-03-16T13:03:59.849Z,14.90
2018-03-16T13:06:27.352Z,16.75
2018-03-16T13:08:55.606Z,13.80
2018-03-16T13:11:23.114Z,15.43
2018-03-16T13:13:50.769Z,15.10
2018-03-16T13:16:19.046Z,14.77
2018-03-16T13:18:47.298Z,20.25
2018-03-16T13:21:16.645Z,17.27
2018-03-16T13:23:44.248Z,13.62
2018-03-16T13:26:11.882Z,26.08
2018-03-16T13:28:39.398Z,12.20
2018-03-16T13:31:06.978Z,16.90
2018-03-16T13:33:34.523Z,20.48
2018-03-16T13:36:02.065Z,11.77
2018-03-16T13:38:29.610Z,13.23
2018-03-16T13:40:57.132Z,12.32
2018-03-16T13:43:25.418Z,12.95
2018-03-16T13:45:53.061Z,17.83
2018-03-16T13:48:20.608Z,12.57
2018-03-16T13:50:48.144Z,13.73
2018-03-16T13:53:15.679Z,12.00
2018-03-16T13:55:43.964Z,11.57
2018-03-16T13:58:12.284Z,12.68
2018-03-16T14:00:39.794Z,17.30
2018-03-16T14:03:07.378Z,15.02
2018-03-16T14:05:35.650Z,9.48
2018-03-16T14:08:03.976Z,11.12
2018-03-16T14:10:31.602Z,11.75
2018-03-16T14:12:59.882Z,15.65
2018-03-16T14:15:28.143Z,13.88
2018-03-16T14:17:55.716Z,11.20
2018-03-16T14:20:24.026Z,13.18
2018-03-16T14:22:52.336Z,13.45
2018-03-16T14:25:19.864Z,14.38
2018-03-16T14:27:47.371Z,9.88
2018-03-16T14:30:14.881Z,8.75
2018-03-16T14:32:43.150Z,13.95
2018-03-16T14:35:11.404Z,14.00
2018-03-16T14:37:38.946Z,14.90
2018-03-16T14:40:06.498Z,14.02
2018-03-16T14:42:34.046Z,14.63
2018-03-16T14:45:02.314Z,15.40
2018-03-16T14:47:30.610Z,15.32
2018-03-16T14:49:58.900Z,12.10
2018-03-16T14:52:26.398Z,17.45
2018-03-16T14:54:53.925Z,11.50
2018-03-16T14:57:21.450Z,10.48
2018-03-16T14:59:48.998Z,13.13
2018-03-16T15:02:16.542Z,10.18
2018-03-16T15:04:44.054Z,12.52
2018-03-16T15:07:11.612Z,10.02
2018-03-16T15:09:39.230Z,13.65
2018-03-16T15:12:06.824Z,11.07
2018-03-16T15:14:34.390Z,9.50
2018-03-16T15:17:03.862Z,10.63
2018-03-16T15:19:31.375Z,11.40
2018-03-16T15:21:58.964Z,15.68
2018-03-16T15:24:27.282Z,10.90
2018-03-16T15:26:54.842Z,12.43
2018-03-16T15:29:22.415Z,9.75
2018-03-16T15:31:50.139Z,15.50
2018-03-16T15:34:18.434Z,11.15
2018-03-16T15:36:45.923Z,8.73
2018-03-16T15:39:13.440Z,8.50
2018-03-16T15:41:41.080Z,8.55
2018-03-16T15:44:08.596Z,7.05
2018-03-16T15:46:36.114Z,8.93
2018-03-16T15:49:03.634Z,7.57
2018-03-16T15:51:31.164Z,8.20
2018-03-16T15:53:58.720Z,4.95
2018-03-16T15:56:26.997Z,12.45
2018-03-16T15:58:55.300Z,5.60
2018-03-16T16:01:22.826Z,9.77
2018-03-16T16:03:50.342Z,5.82
2018-03-16T16:06:17.862Z,7.00
2018-03-16T16:08:46.152Z,10.77
2018-03-16T16:11:13.649Z,8.32
2018-03-16T16:13:41.171Z,6.20
2018-03-16T16:16:08.678Z,7.07
2018-03-16T16:18:36.329Z,6.53
2018-03-16T16:21:04.332Z,6.35
2018-03-16T16:23:31.871Z,7.35
2018-03-16T16:25:59.518Z,7.93
2018-03-16T16:28:27.810Z,5.85
2018-03-16T16:30:56.142Z,4.93
2018-03-16T16:33:23.634Z,6.00
2018-03-16T16:35:51.125Z,7.43
2018-03-16T16:38:18.794Z,8.05
2018-03-16T16:40:47.228Z,9.40
2018-03-16T16:43:14.713Z,4.53
2018-03-16T16:45:43.037Z,5.62
2018-03-16T16:48:10.546Z,10.07
2018-03-16T16:50:38.044Z,8.88
2018-03-16T16:53:05.930Z,6.05
2018-03-16T16:55:33.518Z,8.10
2018-03-16T16:58:01.022Z,6.43
2018-03-16T17:00:28.600Z,6.60
2018-03-16T17:02:56.880Z,6.32
2018-03-16T17:05:24.406Z,4.82
2018-03-16T17:07:52.618Z,4.80
2018-03-16T17:10:21.408Z,7.47
2018-03-16T17:12:49.666Z,4.32
2018-03-16T17:15:17.189Z,5.60
2018-03-16T17:17:44.734Z,7.12
2018-03-16T17:20:12.386Z,7.37
2018-03-16T17:22:40.665Z,10.82
2018-03-16T17:25:09.022Z,6.32
2018-03-16T17:27:36.516Z,6.40
2018-03-16T17:30:04.782Z,6.80
2018-03-16T17:32:33.109Z,6.85
2018-03-16T17:35:03.199Z,6.78
2018-03-16T17:37:31.669Z,3.53
2018-03-16T17:40:00.049Z,5.37
2018-03-16T17:42:27.602Z,5.70
2018-03-16T17:44:55.118Z,6.35
2018-03-16T17:47:22.634Z,5.55
2018-03-16T17:49:50.981Z,9.68
2018-03-16T17:52:18.476Z,6.45
2018-03-16T17:54:45.977Z,5.60
2018-03-16T17:57:14.126Z,5.65
2018-03-16T17:59:41.632Z,5.07
2018-03-16T18:02:09.178Z,6.78
2018-03-16T18:04:37.451Z,6.87
2018-03-16T18:07:05.770Z,8.07
2018-03-16T18:09:34.013Z,6.97
2018-03-16T18:12:02.274Z,6.45
2018-03-16T18:14:30.658Z,5.20
2018-03-16T18:16:58.254Z,6.00
2018-03-16T18:19:25.835Z,5.65
2018-03-16T18:21:53.342Z,3.65
2018-03-16T18:24:20.832Z,8.60
2018-03-16T18:26:49.111Z,2.05
2018-03-16T18:29:17.378Z,10.07
2018-03-16T18:31:44.991Z,6.18
2018-03-16T18:34:13.380Z,4.97
2018-03-16T18:36:40.888Z,4.75
2018-03-16T18:39:09.884Z,5.07
2018-03-16T18:41:37.386Z,5.40
2018-03-16T18:44:04.987Z,6.03
2018-03-16T18:46:32.583Z,7.40
2018-03-16T18:49:00.081Z,5.82
2018-03-16T18:51:27.834Z,8.43
2018-03-16T18:53:56.149Z,6.55
2018-03-16T18:56:23.672Z,7.07
2018-03-16T18:58:51.977Z,5.87
2018-03-16T19:01:19.482Z,7.62
2018-03-16T19:03:47.067Z,3.35
2018-03-16T19:06:14.595Z,3.80
2018-03-16T19:08:42.107Z,5.57
2018-03-16T19:11:10.554Z,6.43
2018-03-16T19:13:38.070Z,6.03
2018-03-16T19:16:05.582Z,8.05
2018-03-16T19:18:33.063Z,7.37
2018-03-16T19:21:00.582Z,9.20
2018-03-16T19:23:28.158Z,3.67
2018-03-16T19:25:55.708Z,9.45
2018-03-16T19:28:23.210Z,3.15
2018-03-16T19:30:50.726Z,4.80
2018-03-16T19:33:18.221Z,6.03
2018-03-16T19:35:45.741Z,2.83
2018-03-16T19:38:13.259Z,6.18
2018-03-16T19:40:40.836Z,4.60
2018-03-16T19:43:08.343Z,6.62
2018-03-16T19:45:35.842Z,5.50
2018-03-16T19:48:03.370Z,4.10
2018-03-16T19:50:30.893Z,5.37
2018-03-16T19:52:58.457Z,5.03
2018-03-16T19:55:26.833Z,4.95
2018-03-16T19:57:55.119Z,2.55
2018-03-16T20:00:22.679Z,9.35
2018-03-16T20:02:50.326Z,6.03
2018-03-16T20:05:17.917Z,3.60
2018-03-16T20:07:45.793Z,5.20
2018-03-16T20:10:14.343Z,3.60
2018-03-16T20:12:41.957Z,8.70
2018-03-16T20:15:11.055Z,3.42
2018-03-16T20:17:39.420Z,4.50
2018-03-16T20:20:06.934Z,5.18
2018-03-16T20:22:34.470Z,2.60
2018-03-16T20:25:02.893Z,3.97
2018-03-16T20:27:31.185Z,5.57
2018-03-16T20:29:58.687Z,6.30
2018-03-16T20:32:26.973Z,8.23
2018-03-16T20:34:55.250Z,3.28
2018-03-16T20:37:23.537Z,5.32
2018-03-16T20:39:51.041Z,4.87
2018-03-16T20:42:18.896Z,2.58
2018-03-16T20:44:46.414Z,5.68
2018-03-16T20:47:13.945Z,9.90
2018-03-16T20:49:41.599Z,5.90
2018-03-16T20:52:09.108Z,4.93
2018-03-16T20:54:36.821Z,3.12
2018-03-16T20:57:04.330Z,3.87
2018-03-16T20:59:31.856Z,7.87
2018-03-16T21:01:59.378Z,5.78
2018-03-16T21:04:26.934Z,2.58
2018-03-16T21:06:54.448Z,3.33
2018-03-16T21:09:21.971Z,7.97
2018-03-16T21:11:49.489Z,28.80
2018-03-16T21:14:17.081Z,3.58
2018-03-16T21:16:44.573Z,3.65
2018-03-16T21:19:12.885Z,2.42
2018-03-16T21:21:40.420Z,4.12
2018-03-16T21:24:08.779Z,3.42
2018-03-16T21:26:36.307Z,4.32
2018-03-16T21:29:03.841Z,3.45
2018-03-16T21:31:32.161Z,5.75
2018-03-16T21:33:59.741Z,7.50
2018-03-16T21:36:28.157Z,8.23
2018-03-16T21:38:55.707Z,4.35
2018-03-16T21:41:23.971Z,22.62
2018-03-16T21:43:52.092Z,5.75
2018-03-16T21:46:19.715Z,3.28
2018-03-16T21:48:47.289Z,2.05
2018-03-16T21:51:14.837Z,5.30
2018-03-16T21:53:42.373Z,2.42
2018-03-16T21:56:09.869Z,5.45
2018-03-16T21:58:37.406Z,5.10
2018-03-16T22:01:05.841Z,3.30
2018-03-16T22:03:34.108Z,4.90
2018-03-16T22:06:01.639Z,3.97
2018-03-16T22:08:29.343Z,3.97
2018-03-16T22:10:57.721Z,4.37
2018-03-16T22:13:25.235Z,6.20
2018-03-16T22:15:52.854Z,3.28
2018-03-16T22:18:20.403Z,4.45
2018-03-16T22:20:47.945Z,3.30
2018-03-16T22:23:15.443Z,4.80
2018-03-16T22:25:42.971Z,2.33
2018-03-16T22:28:10.525Z,3.97
2018-03-16T22:30:38.037Z,3.00
2018-03-16T22:33:06.330Z,2.60
2018-03-16T22:35:36.518Z,4.62
2018-03-16T22:38:04.024Z,5.75
2018-03-16T22:40:32.359Z,4.05
2018-03-16T22:42:59.855Z,3.33
2018-03-16T22:45:28.130Z,5.70
2018-03-16T22:47:56.614Z,3.85
2018-03-16T22:50:24.113Z,5.28
2018-03-16T22:52:51.889Z,5.20
2018-03-16T22:55:20.055Z,6.28
2018-03-16T22:57:48.351Z,5.05
2018-03-16T23:00:19.976Z,5.00
2018-03-16T23:02:48.259Z,3.47
2018-03-16T23:05:16.543Z,5.12
2018-03-16T23:07:44.839Z,3.10
2018-03-16T23:10:12.981Z,4.95
2018-03-16T23:12:40.510Z,3.83
2018-03-16T23:15:08.049Z,3.92
2018-03-16T23:17:35.586Z,2.60
2018-03-16T23:20:04.103Z,4.10
2018-03-16T23:22:31.658Z,5.25
2018-03-16T23:24:59.139Z,4.62
2018-03-16T23:27:26.726Z,6.90
2018-03-16T23:29:54.256Z,4.87
2018-03-16T23:32:21.792Z,5.28
2018-03-16T23:34:50.045Z,2.20
2018-03-16T23:37:18.327Z,2.97
2018-03-16T23:39:45.992Z,7.53
2018-03-16T23:42:13.494Z,2.72
2018-03-16T23:44:41.751Z,3.17
2018-03-16T23:47:10.043Z,2.20
2018-03-16T23:49:38.306Z,8.25
2018-03-16T23:52:05.818Z,2.78
2018-03-16T23:54:34.944Z,5.05
2018-03-16T23:57:02.468Z,3.25
2018-03-16T23:59:29.975Z,4.45
